createdAt,value
2022-08-08T00:02:03.659Z,0.77
2022-08-08T00:04:49.326Z,0.68
2022-08-08T00:07:30.303Z,0.70
2022-08-08T00:10:07.013Z,0.90
2022-08-08T00:12:56.484Z,0.65
2022-08-08T00:15:57.130Z,0.75
2022-08-08T00:18:26.817Z,0.70
2022-08-08T00:20:58.605Z,0.50
2022-08-08T00:23:43.141Z,0.70
2022-08-08T00:26:21.618Z,0.70
2022-08-08T00:29:02.509Z,0.60
2022-08-08T00:32:28.339Z,0.75
2022-08-08T00:35:05.110Z,0.50
2022-08-08T00:37:45.370Z,0.70
2022-08-08T00:41:08.979Z,0.80
2022-08-08T00:44:00.791Z,0.50
2022-08-08T00:47:19.330Z,0.88
2022-08-08T00:50:35.485Z,0.70
2022-08-08T00:53:18.711Z,0.60
2022-08-08T00:56:16.497Z,0.50
2022-08-08T00:59:44.624Z,0.60
2022-08-08T01:03:57.974Z,0.63
2022-08-08T01:06:05.778Z,0.60
2022-08-08T01:09:36.179Z,0.50
2022-08-08T01:12:43.138Z,0.50
2022-08-08T01:15:54.439Z,0.60
2022-08-08T01:18:54.167Z,0.68
2022-08-08T01:22:07.195Z,0.63
2022-08-08T01:24:58.955Z,0.55
2022-08-08T01:28:02.539Z,0.70
2022-08-08T01:31:10.519Z,0.70
2022-08-08T01:34:36.146Z,0.60
2022-08-08T01:37:41.246Z,0.60
2022-08-08T01:40:36.477Z,0.70
2022-08-08T01:43:14.331Z,0.75
2022-08-08T01:45:56.721Z,0.65
2022-08-08T01:48:46.360Z,0.80
2022-08-08T01:52:47.308Z,0.95
2022-08-08T01:55:26.944Z,0.60
2022-08-08T01:58:11.548Z,0.80
2022-08-08T02:00:44.604Z,0.70
2022-08-08T02:03:55.648Z,0.70
2022-08-08T02:06:31.757Z,0.80
2022-08-08T02:09:16.266Z,0.88
2022-08-08T02:11:52.834Z,0.52
2022-08-08T02:14:55.683Z,0.70
2022-08-08T02:17:42.908Z,0.80
2022-08-08T02:21:02.605Z,0.93
2022-08-08T02:23:22.658Z,0.63
2022-08-08T02:26:00.615Z,0.70
2022-08-08T02:28:48.229Z,0.70
2022-08-08T02:31:59.654Z,0.63
2022-08-08T02:35:11.001Z,0.63
2022-08-08T02:38:32.688Z,0.60
2022-08-08T02:41:59.383Z,0.60
2022-08-08T02:44:56.951Z,0.68
2022-08-08T02:48:13.297Z,0.70
2022-08-08T02:51:30.087Z,0.80
2022-08-08T02:54:53.747Z,0.80
2022-08-08T02:58:07.507Z,0.85
2022-08-08T03:01:14.986Z,0.70
2022-08-08T03:05:04.758Z,0.90
2022-08-08T03:07:59.424Z,0.88
2022-08-08T03:11:13.868Z,0.82
2022-08-08T03:15:58.742Z,0.70
2022-08-08T03:17:38.912Z,0.82
2022-08-08T03:20:11.650Z,0.80
2022-08-08T03:22:51.047Z,1.00
2022-08-08T03:25:35.562Z,0.90
2022-08-08T03:28:08.942Z,1.00
2022-08-08T03:30:39.601Z,0.80
2022-08-08T03:33:56.316Z,0.80
2022-08-08T03:36:15.967Z,0.73
2022-08-08T03:38:54.903Z,0.70
2022-08-08T03:42:12.798Z,0.70
2022-08-08T03:44:25.395Z,0.73
2022-08-08T03:46:55.977Z,0.80
2022-08-08T03:49:57.941Z,0.93
2022-08-08T03:52:17.222Z,0.82
2022-08-08T03:55:02.338Z,0.90
2022-08-08T03:58:32.068Z,0.80
2022-08-08T04:00:30.729Z,0.98
2022-08-08T04:03:11.576Z,0.90
2022-08-08T04:05:48.094Z,0.70
2022-08-08T04:08:33.629Z,0.95
2022-08-08T04:11:10.924Z,0.80
2022-08-08T04:14:03.705Z,0.73
2022-08-08T04:16:40.236Z,0.90
2022-08-08T04:19:24.166Z,1.30
2022-08-08T04:21:58.951Z,1.52
2022-08-08T04:24:31.986Z,0.70
2022-08-08T04:27:07.569Z,0.80
2022-08-08T04:29:55.175Z,0.90
2022-08-08T04:32:30.686Z,0.88
2022-08-08T04:35:13.188Z,0.88
2022-08-08T04:37:43.291Z,0.95
2022-08-08T04:40:19.119Z,0.85
2022-08-08T04:43:00.828Z,0.80
2022-08-08T04:45:40.454Z,1.08
2022-08-08T04:48:09.377Z,0.70
2022-08-08T04:50:45.904Z,0.75
2022-08-08T04:54:27.124Z,0.70
2022-08-08T04:56:08.943Z,0.70
2022-08-08T04:58:39.194Z,0.90
2022-08-08T05:01:10.789Z,0.77
2022-08-08T05:04:09.956Z,0.80
2022-08-08T05:06:39.129Z,0.80
2022-08-08T05:09:08.807Z,1.30
2022-08-08T05:11:40.868Z,0.90
2022-08-08T05:14:14.739Z,0.80
2022-08-08T05:16:55.642Z,0.68
2022-08-08T05:20:04.288Z,0.75
2022-08-08T05:22:27.766Z,0.63
2022-08-08T05:24:58.126Z,1.02
2022-08-08T05:27:26.617Z,0.88
2022-08-08T05:30:03.353Z,0.70
2022-08-08T05:32:41.129Z,0.77
2022-08-08T05:35:15.076Z,0.93
2022-08-08T05:37:54.000Z,0.65
2022-08-08T05:40:58.202Z,0.85
2022-08-08T05:43:39.260Z,0.85
2022-08-08T05:46:16.273Z,0.80
2022-08-08T05:48:52.117Z,0.70
2022-08-08T05:51:24.742Z,0.82
2022-08-08T05:54:28.562Z,0.80
2022-08-08T05:56:46.869Z,1.20
2022-08-08T05:59:59.642Z,0.98
2022-08-08T06:02:40.917Z,0.73
2022-08-08T06:05:33.460Z,0.98
2022-08-08T06:08:09.349Z,1.00
2022-08-08T06:10:40.781Z,0.90
2022-08-08T06:13:10.007Z,0.85
2022-08-08T06:15:50.817Z,0.90
2022-08-08T06:18:34.096Z,0.77
2022-08-08T06:21:11.613Z,0.80
2022-08-08T06:24:04.675Z,0.75
2022-08-08T06:26:45.429Z,0.80
2022-08-08T06:29:59.476Z,0.68
2022-08-08T06:32:20.750Z,0.73
2022-08-08T06:35:12.025Z,0.70
2022-08-08T06:38:00.631Z,0.75
2022-08-08T06:40:37.006Z,0.82
2022-08-08T06:43:11.617Z,1.00
2022-08-08T06:46:01.945Z,0.70
2022-08-08T06:48:32.747Z,0.93
2022-08-08T06:51:08.344Z,0.90
2022-08-08T06:53:39.366Z,0.77
2022-08-08T06:56:11.477Z,0.80
2022-08-08T06:58:44.914Z,0.70
2022-08-08T07:02:17.100Z,0.73
2022-08-08T07:04:39.801Z,0.75
2022-08-08T07:07:09.639Z,1.08
2022-08-08T07:09:59.310Z,0.80
2022-08-08T07:12:41.000Z,1.00
2022-08-08T07:15:32.786Z,1.27
2022-08-08T07:18:35.919Z,0.88
2022-08-08T07:21:02.232Z,0.80
2022-08-08T07:23:57.618Z,1.00
2022-08-08T07:26:37.899Z,0.55
2022-08-08T07:29:11.640Z,0.80
2022-08-08T07:31:56.747Z,0.95
2022-08-08T07:34:32.113Z,0.70
2022-08-08T07:37:11.936Z,0.82
2022-08-08T07:39:56.177Z,1.02
2022-08-08T07:42:33.463Z,0.80
2022-08-08T07:45:05.500Z,0.80
2022-08-08T07:47:39.341Z,0.90
2022-08-08T07:50:10.788Z,0.85
2022-08-08T07:52:44.442Z,1.00
2022-08-08T07:55:28.597Z,0.90
2022-08-08T07:58:14.764Z,1.15
2022-08-08T08:00:49.464Z,0.90
2022-08-08T08:03:23.738Z,0.80
2022-08-08T08:05:59.347Z,1.00
2022-08-08T08:08:50.146Z,0.90
2022-08-08T08:11:33.982Z,0.75
2022-08-08T08:14:19.484Z,0.80
2022-08-08T08:16:50.822Z,0.88
2022-08-08T08:19:23.111Z,1.20
2022-08-08T08:21:58.379Z,0.70
2022-08-08T08:24:46.871Z,0.90
2022-08-08T08:27:21.811Z,0.80
2022-08-08T08:29:54.430Z,0.80
2022-08-08T08:32:35.805Z,0.90
2022-08-08T08:35:15.305Z,1.30
2022-08-08T08:38:12.935Z,0.80
2022-08-08T08:40:34.698Z,0.95
2022-08-08T08:43:07.879Z,1.00
2022-08-08T08:45:40.874Z,0.82
2022-08-08T08:48:16.443Z,0.80
2022-08-08T08:50:51.991Z,0.95
2022-08-08T08:53:55.277Z,0.90
2022-08-08T08:56:18.304Z,1.00
2022-08-08T08:58:58.043Z,0.82
2022-08-08T09:01:35.484Z,0.98
2022-08-08T09:04:31.577Z,0.93
2022-08-08T09:07:03.235Z,0.60
2022-08-08T09:09:47.878Z,0.90
2022-08-08T09:12:24.684Z,0.90
2022-08-08T09:14:58.886Z,0.90
2022-08-08T09:17:41.973Z,1.02
2022-08-08T09:22:01.960Z,1.08
2022-08-08T09:23:17.369Z,1.20
2022-08-08T09:26:02.039Z,0.98
2022-08-08T09:28:40.156Z,0.90
2022-08-08T09:31:42.262Z,1.10
2022-08-08T09:34:32.110Z,1.00
2022-08-08T09:37:46.362Z,0.93
2022-08-08T09:40:00.814Z,0.88
2022-08-08T09:42:35.574Z,0.73
2022-08-08T09:45:20.499Z,1.02
2022-08-08T09:48:17.712Z,0.93
2022-08-08T09:50:51.675Z,1.13
2022-08-08T09:53:52.950Z,0.80
2022-08-08T09:56:22.124Z,0.90
2022-08-08T09:59:03.391Z,1.15
2022-08-08T10:01:59.186Z,1.10
2022-08-08T10:04:41.310Z,1.10
2022-08-08T10:07:13.960Z,1.10
2022-08-08T10:09:58.681Z,1.33
2022-08-08T10:12:52.536Z,0.95
2022-08-08T10:15:24.174Z,1.00
2022-08-08T10:18:05.312Z,0.80
2022-08-08T10:20:51.072Z,0.90
2022-08-08T10:23:44.256Z,1.00
2022-08-08T10:26:30.850Z,0.80
2022-08-08T10:29:11.299Z,1.00
2022-08-08T10:31:58.250Z,0.90
2022-08-08T10:34:28.725Z,1.08
2022-08-08T10:37:00.222Z,0.88
2022-08-08T10:39:31.542Z,0.85
2022-08-08T10:42:16.279Z,1.00
2022-08-08T10:44:45.778Z,0.95
2022-08-08T10:47:15.780Z,1.20
2022-08-08T10:50:02.023Z,1.02
2022-08-08T10:52:33.771Z,1.15
2022-08-08T10:55:06.961Z,0.90
2022-08-08T10:57:45.230Z,1.10
2022-08-08T11:00:23.251Z,0.80
2022-08-08T11:02:53.991Z,1.00
2022-08-08T11:05:23.064Z,0.88
2022-08-08T11:08:37.193Z,1.00
2022-08-08T11:10:42.175Z,0.90
2022-08-08T11:13:30.009Z,1.40
2022-08-08T11:16:01.181Z,1.00
2022-08-08T11:18:36.658Z,0.80
2022-08-08T11:21:09.134Z,1.05
2022-08-08T11:23:43.496Z,0.88
2022-08-08T11:26:19.228Z,1.00
2022-08-08T11:28:50.265Z,0.90
2022-08-08T11:31:18.423Z,1.02
2022-08-08T11:34:02.930Z,0.90
2022-08-08T11:36:32.694Z,1.02
2022-08-08T11:39:12.713Z,1.13
2022-08-08T11:41:45.126Z,1.00
2022-08-08T11:44:15.846Z,1.00
2022-08-08T11:46:45.372Z,1.02
2022-08-08T11:49:22.864Z,0.90
2022-08-08T11:51:52.550Z,0.82
2022-08-08T11:54:38.329Z,1.15
2022-08-08T11:57:21.875Z,1.17
2022-08-08T12:00:01.279Z,1.00
2022-08-08T12:02:48.360Z,0.90
2022-08-08T12:05:22.843Z,0.80
2022-08-08T12:07:56.007Z,0.80
2022-08-08T12:10:30.174Z,0.95
2022-08-08T12:13:05.053Z,1.10
2022-08-08T12:15:42.515Z,1.05
2022-08-08T12:18:21.366Z,0.98
2022-08-08T12:20:50.944Z,0.85
2022-08-08T12:23:43.100Z,0.90
2022-08-08T12:26:28.485Z,1.00
2022-08-08T12:29:04.780Z,0.88
2022-08-08T12:31:39.371Z,1.15
2022-08-08T12:34:37.722Z,0.73
2022-08-08T12:37:08.451Z,0.70
2022-08-08T12:39:59.913Z,0.80
2022-08-08T12:42:32.929Z,0.90
2022-08-08T12:45:59.197Z,0.82
2022-08-08T12:48:09.590Z,0.95
2022-08-08T12:50:49.056Z,1.10
2022-08-08T12:53:30.223Z,0.80
2022-08-08T12:56:17.428Z,1.00
2022-08-08T12:58:54.250Z,0.70
2022-08-08T13:01:36.322Z,1.00
2022-08-08T13:04:19.161Z,0.90
2022-08-08T13:07:03.166Z,0.82
2022-08-08T13:10:01.993Z,0.90
2022-08-08T13:12:29.465Z,0.88
2022-08-08T13:15:03.097Z,0.80
2022-08-08T13:18:07.652Z,1.00
2022-08-08T13:20:22.030Z,0.75
2022-08-08T13:22:51.555Z,1.00
2022-08-08T13:25:27.439Z,0.90
2022-08-08T13:28:00.705Z,0.95
2022-08-08T13:30:31.083Z,1.05
2022-08-08T13:33:01.400Z,1.23
2022-08-08T13:35:38.980Z,0.80
2022-08-08T13:38:13.469Z,1.00
2022-08-08T13:40:45.060Z,0.90
2022-08-08T13:43:16.008Z,1.00
2022-08-08T13:45:47.633Z,1.08
2022-08-08T13:48:17.456Z,0.77
2022-08-08T13:50:57.736Z,0.80
2022-08-08T13:53:53.317Z,0.80
2022-08-08T13:56:41.633Z,0.80
2022-08-08T13:59:32.879Z,0.80
2022-08-08T14:02:07.503Z,0.82
2022-08-08T14:04:38.574Z,0.80
2022-08-08T14:07:21.843Z,1.10
2022-08-08T14:10:04.683Z,0.70
2022-08-08T14:12:39.897Z,0.77
2022-08-08T14:15:24.259Z,0.70
2022-08-08T14:18:35.789Z,0.90
2022-08-08T14:21:03.014Z,1.00
2022-08-08T14:24:06.430Z,0.90
2022-08-08T14:26:33.193Z,0.63
2022-08-08T14:29:06.100Z,0.90
2022-08-08T14:32:10.902Z,0.80
2022-08-08T14:34:39.194Z,0.90
2022-08-08T14:37:12.706Z,1.17
2022-08-08T14:39:53.694Z,0.95
2022-08-08T14:42:35.848Z,1.00
2022-08-08T14:45:09.839Z,0.70
2022-08-08T14:47:51.408Z,1.00
2022-08-08T14:50:39.338Z,0.80
2022-08-08T14:53:13.391Z,0.98
2022-08-08T14:55:43.660Z,0.82
2022-08-08T14:58:16.812Z,0.85
2022-08-08T15:00:50.186Z,0.88
2022-08-08T15:03:18.630Z,1.20
2022-08-08T15:05:53.194Z,0.80
2022-08-08T15:08:35.592Z,1.00
2022-08-08T15:11:09.119Z,1.00
2022-08-08T15:13:40.556Z,0.80
2022-08-08T15:16:28.055Z,0.60
2022-08-08T15:18:56.386Z,0.80
2022-08-08T15:21:30.199Z,1.05
2022-08-08T15:23:58.453Z,0.73
2022-08-08T15:26:29.242Z,0.82
2022-08-08T15:28:58.072Z,0.80
2022-08-08T15:32:02.896Z,0.82
2022-08-08T15:34:29.896Z,1.27
2022-08-08T15:37:04.833Z,0.93
2022-08-08T15:39:37.922Z,1.00
2022-08-08T15:42:13.054Z,0.77
2022-08-08T15:44:45.994Z,0.77
2022-08-08T15:47:15.739Z,0.77
2022-08-08T15:49:48.567Z,0.90
2022-08-08T15:52:20.735Z,0.93
2022-08-08T15:54:51.582Z,1.10
2022-08-08T15:57:21.111Z,0.93
2022-08-08T16:00:05.501Z,1.00
2022-08-08T16:02:44.241Z,0.90
2022-08-08T16:05:20.511Z,0.90
2022-08-08T16:07:52.926Z,0.80
2022-08-08T16:13:11.973Z,1.15
2022-08-08T16:13:32.308Z,1.00
2022-08-08T16:16:13.286Z,0.93
2022-08-08T16:18:56.641Z,0.80
2022-08-08T16:21:29.504Z,0.80
2022-08-08T16:24:00.585Z,1.08
2022-08-08T16:26:33.942Z,0.70
2022-08-08T16:29:09.063Z,0.80
2022-08-08T16:31:40.774Z,1.02
2022-08-08T16:34:09.706Z,1.00
2022-08-08T16:36:38.393Z,1.00
2022-08-08T16:39:16.856Z,1.17
2022-08-08T16:42:01.266Z,0.80
2022-08-08T16:44:33.872Z,1.00
2022-08-08T16:47:21.601Z,0.80
2022-08-08T16:49:59.624Z,0.70
2022-08-08T16:55:23.723Z,0.82
2022-08-08T16:55:42.413Z,0.80
2022-08-08T16:58:13.967Z,0.90
2022-08-08T17:00:48.874Z,1.10
2022-08-08T17:03:24.938Z,2.20
2022-08-08T17:06:03.041Z,1.02
2022-08-08T17:08:31.823Z,1.02
2022-08-08T17:11:10.317Z,0.70
2022-08-08T17:13:41.441Z,0.90
2022-08-08T17:16:22.017Z,0.70
2022-08-08T17:18:52.688Z,0.75
2022-08-08T17:21:21.578Z,0.70
2022-08-08T17:23:58.016Z,0.77
2022-08-08T17:26:32.342Z,1.10
2022-08-08T17:29:03.973Z,2.10
2022-08-08T17:31:44.419Z,2.15
2022-08-08T17:34:53.029Z,2.50
2022-08-08T17:37:06.804Z,1.80
2022-08-08T17:40:03.572Z,1.45
2022-08-08T17:42:27.596Z,1.77
2022-08-08T17:44:58.570Z,1.30
2022-08-08T17:47:28.114Z,1.58
2022-08-08T17:50:07.891Z,0.88
2022-08-08T17:52:38.307Z,0.90
2022-08-08T17:56:05.613Z,0.70
2022-08-08T17:58:02.301Z,0.98
2022-08-08T18:00:31.488Z,0.90
2022-08-08T18:03:08.957Z,0.65
2022-08-08T18:05:48.065Z,0.82
2022-08-08T18:08:24.901Z,1.00
2022-08-08T18:11:14.677Z,0.52
2022-08-08T18:13:47.267Z,0.73
2022-08-08T18:16:20.160Z,1.02
2022-08-08T18:18:54.051Z,1.00
2022-08-08T18:22:00.020Z,0.93
2022-08-08T18:24:19.028Z,1.10
2022-08-08T18:26:53.873Z,1.17
2022-08-08T18:29:29.532Z,1.02
2022-08-08T18:32:03.624Z,0.90
2022-08-08T18:34:33.966Z,1.05
2022-08-08T18:37:08.175Z,0.90
2022-08-08T18:39:38.523Z,1.13
2022-08-08T18:42:14.345Z,1.17
2022-08-08T18:44:54.814Z,1.00
2022-08-08T18:47:25.364Z,0.90
2022-08-08T18:49:58.669Z,0.82
2022-08-08T18:52:34.675Z,0.80
2022-08-08T18:55:10.123Z,0.88
2022-08-08T18:57:45.144Z,0.98
2022-08-08T19:00:20.270Z,0.82
2022-08-08T19:03:04.234Z,1.00
2022-08-08T19:05:45.556Z,0.70
2022-08-08T19:08:24.074Z,0.75
2022-08-08T19:10:55.387Z,0.90
2022-08-08T19:13:53.780Z,1.00
2022-08-08T19:16:18.397Z,2.20
2022-08-08T19:18:53.367Z,1.35
2022-08-08T19:21:30.495Z,1.10
2022-08-08T19:24:05.280Z,0.88
2022-08-08T19:26:35.186Z,0.90
2022-08-08T19:29:03.459Z,1.23
2022-08-08T19:31:36.054Z,1.00
2022-08-08T19:34:35.715Z,0.90
2022-08-08T19:36:58.666Z,1.02
2022-08-08T19:39:34.691Z,0.93
2022-08-08T19:42:06.627Z,1.00
2022-08-08T19:44:45.965Z,1.00
2022-08-08T19:47:23.455Z,1.08
2022-08-08T19:49:59.880Z,1.55
2022-08-08T19:52:35.156Z,0.80
2022-08-08T19:55:09.400Z,1.27
2022-08-08T19:57:41.076Z,0.85
2022-08-08T20:00:29.165Z,1.20
2022-08-08T20:03:01.969Z,1.23
2022-08-08T20:06:15.656Z,1.23
2022-08-08T20:08:32.361Z,1.00
2022-08-08T20:11:01.486Z,0.98
2022-08-08T20:14:13.173Z,0.90
2022-08-08T20:16:18.976Z,0.85
2022-08-08T20:18:53.085Z,0.80
2022-08-08T20:21:25.755Z,0.98
2022-08-08T20:23:58.230Z,1.10
2022-08-08T20:26:33.603Z,1.08
2022-08-08T20:29:03.243Z,1.30
2022-08-08T20:32:07.389Z,1.98
2022-08-08T20:34:29.277Z,1.33
2022-08-08T20:36:58.960Z,0.98
2022-08-08T20:39:39.720Z,0.88
2022-08-08T20:42:15.439Z,0.98
2022-08-08T20:44:43.707Z,1.00
2022-08-08T20:47:23.042Z,0.80
2022-08-08T20:49:57.833Z,0.90
2022-08-08T20:52:29.023Z,0.90
2022-08-08T20:54:58.485Z,1.10
2022-08-08T20:57:27.925Z,0.95
2022-08-08T20:59:56.661Z,0.95
2022-08-08T21:02:26.642Z,0.93
2022-08-08T21:05:00.832Z,1.00
2022-08-08T21:07:47.150Z,0.80
2022-08-08T21:10:21.067Z,0.82
2022-08-08T21:12:52.862Z,1.13
2022-08-08T21:16:05.063Z,0.90
2022-08-08T21:18:11.802Z,0.88
2022-08-08T21:20:42.314Z,0.93
2022-08-08T21:23:13.045Z,1.33
2022-08-08T21:25:43.755Z,1.00
2022-08-08T21:28:16.351Z,1.38
2022-08-08T21:30:52.366Z,1.42
2022-08-08T21:33:21.636Z,1.00
2022-08-08T21:36:14.975Z,1.20
2022-08-08T21:38:39.449Z,1.15
2022-08-08T21:41:07.973Z,1.17
2022-08-08T21:43:36.314Z,0.93
2022-08-08T21:48:05.276Z,1.38
2022-08-08T21:48:55.782Z,1.77
2022-08-08T21:54:18.378Z,1.25
2022-08-08T21:54:54.231Z,0.90
2022-08-08T21:57:08.307Z,1.20
2022-08-08T22:00:02.223Z,2.15
2022-08-08T22:02:25.761Z,0.98
2022-08-08T22:04:58.714Z,1.02
2022-08-08T22:07:39.671Z,1.33
2022-08-08T22:10:09.973Z,1.25
2022-08-08T22:12:47.057Z,1.10
2022-08-08T22:15:15.105Z,1.10
2022-08-08T22:17:45.750Z,1.27
2022-08-08T22:20:18.760Z,1.20
2022-08-08T22:22:52.823Z,1.20
2022-08-08T22:25:25.331Z,1.20
2022-08-08T22:28:03.958Z,1.20
2022-08-08T22:30:50.983Z,1.00
2022-08-08T22:34:05.066Z,1.10
2022-08-08T22:36:12.288Z,1.05
2022-08-08T22:38:48.885Z,1.30
2022-08-08T22:41:21.727Z,1.13
2022-08-08T22:44:05.487Z,1.38
2022-08-08T22:46:34.444Z,1.42
2022-08-08T22:49:09.066Z,1.02
2022-08-08T22:51:42.903Z,1.00
2022-08-08T22:54:32.833Z,1.23
2022-08-08T22:57:08.657Z,1.42
2022-08-08T22:59:52.780Z,1.35
2022-08-08T23:02:28.721Z,1.23
2022-08-08T23:04:57.800Z,1.27
2022-08-08T23:07:52.179Z,1.08
2022-08-08T23:10:21.151Z,1.20
2022-08-08T23:12:51.576Z,1.40
2022-08-08T23:16:41.959Z,1.67
2022-08-08T23:18:11.892Z,1.70
2022-08-08T23:20:40.646Z,1.55
2022-08-08T23:23:09.047Z,1.50
2022-08-08T23:25:47.830Z,1.90
2022-08-08T23:28:18.953Z,1.55
2022-08-08T23:30:48.666Z,1.73
2022-08-08T23:33:20.971Z,1.40
2022-08-08T23:36:08.879Z,1.60
2022-08-08T23:38:43.934Z,1.88
2022-08-08T23:41:24.440Z,1.58
2022-08-08T23:43:54.207Z,1.52
2022-08-08T23:49:06.575Z,1.30
2022-08-08T23:49:18.417Z,1.20
2022-08-08T23:52:04.363Z,1.38
2022-08-08T23:54:41.759Z,1.40
2022-08-08T23:57:27.736Z,1.45
